Time;durP1;ratioP1;P1;durP2;ratioP2;P2;SDS_P1;SDS_P2;PMS_P1;PMS_P2;Temp;Humidity;BMP_temperature;BMP_pressure;BME280_temperature;BME280_humidity;BME280_pressure;Samples;Min_cycle;Max_cycle;Signal;HPM_P1;HPM_P2
2022/05/05 00:01:26;;;;;;;;;;;8.10;78.00;;;;;;6220411;23;19912;-83
2022/05/05 00:03:52;;;;;;;;;;;8.40;78.20;;;;;;6220524;23;20226;-82
2022/05/05 00:06:17;;;;;;;;;;;8.00;78.80;;;;;;6195362;23;19919;-83
2022/05/05 00:08:46;;;;;;;;;;;8.10;78.90;;;;;;6220501;23;19916;-81
2022/05/05 00:16:40;;;;;;;;;;;8.20;79.30;;;;;;6220330;23;19915;-82
2022/05/05 00:19:06;;;;;;;;;;;8.10;77.40;;;;;;6195257;23;19918;-82
2022/05/05 00:21:32;;;;;;;;;;;8.10;79.20;;;;;;6194588;23;20218;-82
2022/05/05 00:23:57;;;;;;;;;;;8.00;80.00;;;;;;6195137;23;19912;-81
2022/05/05 00:26:24;;;;;;;;;;;8.00;78.80;;;;;;6195291;23;19919;-81
2022/05/05 00:28:50;;;;;;;;;;;8.00;80.00;;;;;;6195157;23;19911;-81
2022/05/05 00:31:16;;;;;;;;;;;8.00;78.90;;;;;;6219880;23;19911;-80
2022/05/05 00:33:42;;;;;;;;;;;8.00;78.60;;;;;;6194764;23;19979;-80
2022/05/05 00:36:07;;;;;;;;;;;7.90;79.20;;;;;;6195207;23;19911;-80
2022/05/05 00:38:34;;;;;;;;;;;7.90;79.40;;;;;;6195280;23;19997;-81
2022/05/05 00:40:59;;;;;;;;;;;8.00;79.90;;;;;;6195100;23;19991;-79
2022/05/05 00:43:25;;;;;;;;;;;7.80;79.90;;;;;;6195132;23;19950;-81
2022/05/05 00:45:50;;;;;;;;;;;8.00;80.70;;;;;;6195013;23;20245;-82
2022/05/05 00:48:17;;;;;;;;;;;7.60;79.90;;;;;;6194598;23;19965;-84
2022/05/05 00:50:42;;;;;;;;;;;7.40;80.00;;;;;;6219925;23;19911;-82
2022/05/05 00:53:08;;;;;;;;;;;7.60;80.60;;;;;;6196868;23;19987;-81
2022/05/05 00:55:37;;;;;;;;;;;7.60;81.10;;;;;;6219987;23;20318;-82
2022/05/05 00:58:03;;;;;;;;;;;7.50;79.80;;;;;;6220227;23;19973;-82
2022/05/05 01:00:30;;;;;;;;;;;7.50;80.10;;;;;;6194490;23;19912;-81
2022/05/05 01:02:57;;;;;;;;;;;7.40;79.90;;;;;;6219888;23;19911;-84
2022/05/05 01:05:24;;;;;;;;;;;7.70;81.10;;;;;;6220054;23;19967;-82
2022/05/05 01:07:50;;;;;;;;;;;7.60;80.40;;;;;;6205377;23;19912;-82
2022/05/05 01:10:16;;;;;;;;;;;7.30;80.90;;;;;;6234012;23;19990;-83
2022/05/05 01:12:41;;;;;;;;;;;7.20;81.20;;;;;;6247537;22;19899;-80
2022/05/05 01:15:08;;;;;;;;;;;7.20;81.40;;;;;;6220329;23;19904;-82
2022/05/05 01:17:34;;;;;;;;;;;7.10;82.00;;;;;;6195337;23;20222;-81
2022/05/05 01:20:10;;;;;;;;;;;7.10;81.80;;;;;;6196033;22;19981;-81
2022/05/05 01:22:35;;;;;;;;;;;7.00;82.50;;;;;;6195557;23;19915;-82
2022/05/05 01:30:30;;;;;;;;;;;7.00;81.10;;;;;;6248255;22;19910;-81
2022/05/05 01:32:55;;;;;;;;;;;7.20;81.20;;;;;;6223257;22;19907;-81
2022/05/05 01:35:21;;;;;;;;;;;7.00;81.80;;;;;;6223188;22;19911;-82
2022/05/05 01:37:47;;;;;;;;;;;7.40;80.80;;;;;;6173297;23;19911;-82
2022/05/05 01:40:14;;;;;;;;;;;7.00;81.20;;;;;;6194138;23;20337;-82
2022/05/05 01:42:40;;;;;;;;;;;6.90;82.40;;;;;;6195530;23;19916;-83
2022/05/05 01:45:06;;;;;;;;;;;7.00;81.10;;;;;;6221779;23;19911;-82
2022/05/05 01:47:31;;;;;;;;;;;6.90;81.90;;;;;;6221653;23;19911;-80
2022/05/05 01:49:58;;;;;;;;;;;7.00;80.90;;;;;;6196811;22;19918;-82
2022/05/05 01:52:24;;;;;;;;;;;7.30;82.00;;;;;;6221629;23;19990;-83
2022/05/05 01:54:49;;;;;;;;;;;6.90;81.20;;;;;;6196341;23;20337;-83
2022/05/05 01:57:15;;;;;;;;;;;6.90;82.20;;;;;;6221707;23;19911;-82
2022/05/05 01:59:41;;;;;;;;;;;7.00;82.50;;;;;;6196555;23;20309;-81
2022/05/05 02:02:06;;;;;;;;;;;6.90;81.10;;;;;;6196295;23;19938;-81
2022/05/05 02:04:32;;;;;;;;;;;6.90;81.00;;;;;;6196518;23;19990;-83
2022/05/05 02:06:57;;;;;;;;;;;7.00;81.90;;;;;;6196547;23;20002;-83
2022/05/05 02:09:23;;;;;;;;;;;6.70;82.20;;;;;;6196483;23;19990;-83
2022/05/05 02:11:49;;;;;;;;;;;6.80;81.10;;;;;;6196384;23;19943;-83
2022/05/05 02:14:14;;;;;;;;;;;6.90;81.60;;;;;;6221229;23;19941;-81
2022/05/05 02:16:40;;;;;;;;;;;6.80;81.50;;;;;;6196088;23;19912;-84
2022/05/05 02:19:06;;;;;;;;;;;7.00;84.20;;;;;;6196472;23;19918;-83
2022/05/05 02:21:31;;;;;;;;;;;6.70;83.10;;;;;;6196307;23;19991;-81
2022/05/05 02:23:57;;;;;;;;;;;6.60;84.60;;;;;;6196647;23;19915;-83
2022/05/05 02:26:23;;;;;;;;;;;6.70;85.30;;;;;;6195975;23;20358;-85
2022/05/05 02:28:49;;;;;;;;;;;6.60;83.50;;;;;;6196358;23;19918;-82
2022/05/05 02:31:15;;;;;;;;;;;7.00;85.20;;;;;;6204387;23;20230;-84
2022/05/05 02:33:41;;;;;;;;;;;6.60;84.40;;;;;;6235677;23;19918;-84
2022/05/05 02:38:52;;;;;;;;;;;6.60;83.90;;;;;;6169670;23;19923;-83
2022/05/05 02:41:18;;;;;;;;;;;6.60;84.60;;;;;;6196378;23;19911;-81
2022/05/05 02:43:44;;;;;;;;;;;6.50;85.20;;;;;;6196144;23;19967;-83
2022/05/05 02:46:10;;;;;;;;;;;6.40;86.40;;;;;;6195729;23;19918;-83
2022/05/05 02:48:36;;;;;;;;;;;6.30;85.80;;;;;;6196053;23;19961;-82
2022/05/05 02:51:01;;;;;;;;;;;6.40;84.90;;;;;;6220995;23;19996;-82
2022/05/05 02:56:11;;;;;;;;;;;6.40;84.00;;;;;;6221251;23;19918;-82
2022/05/05 02:58:37;;;;;;;;;;;6.50;86.40;;;;;;6195952;23;19987;-83
2022/05/05 03:01:03;;;;;;;;;;;6.40;85.20;;;;;;6195834;23;20207;-82
2022/05/05 03:03:28;;;;;;;;;;;6.40;83.70;;;;;;6220886;23;19916;-82
2022/05/05 03:05:54;;;;;;;;;;;6.40;83.60;;;;;;6196100;23;20364;-82
2022/05/05 03:08:20;;;;;;;;;;;6.40;83.40;;;;;;6195873;23;19912;-84
2022/05/05 03:10:45;;;;;;;;;;;6.60;85.20;;;;;;6195814;23;19947;-81
2022/05/05 03:13:11;;;;;;;;;;;6.40;83.70;;;;;;6196178;23;19912;-83
2022/05/05 03:15:37;;;;;;;;;;;6.40;83.70;;;;;;6195189;23;20323;-83
2022/05/05 03:18:02;;;;;;;;;;;6.30;84.10;;;;;;6195727;23;20277;-81
2022/05/05 03:20:28;;;;;;;;;;;6.50;83.40;;;;;;6195658;23;19950;-82
2022/05/05 03:22:53;;;;;;;;;;;6.40;83.70;;;;;;6195352;23;19927;-80
2022/05/05 03:25:19;;;;;;;;;;;6.90;83.90;;;;;;6195591;23;19911;-81
2022/05/05 03:27:45;;;;;;;;;;;6.50;84.40;;;;;;6220678;23;19990;-83
2022/05/05 03:30:11;;;;;;;;;;;6.50;84.10;;;;;;6195689;22;19919;-82
2022/05/05 03:32:36;;;;;;;;;;;6.40;83.90;;;;;;6220622;23;19911;-81
2022/05/05 03:35:02;;;;;;;;;;;6.70;84.10;;;;;;6195769;23;20261;-83
2022/05/05 03:37:30;;;;;;;;;;;6.80;84.50;;;;;;6195638;23;19911;-82
2022/05/05 03:39:56;;;;;;;;;;;6.40;85.40;;;;;;6195749;23;19911;-83
2022/05/05 03:42:21;;;;;;;;;;;6.40;84.40;;;;;;6195317;23;19922;-83
2022/05/05 03:44:50;;;;;;;;;;;6.30;84.60;;;;;;6195563;23;19911;-81
2022/05/05 03:47:15;;;;;;;;;;;6.10;85.10;;;;;;6221848;23;19919;-84
2022/05/05 03:49:41;;;;;;;;;;;6.70;86.40;;;;;;6209601;23;19951;-86
2022/05/05 03:52:07;;;;;;;;;;;6.20;85.90;;;;;;6216764;22;19910;-81
2022/05/05 03:54:33;;;;;;;;;;;6.20;85.10;;;;;;6223756;22;19923;-83
2022/05/05 03:56:59;;;;;;;;;;;6.00;86.40;;;;;;6198199;23;19934;-84
2022/05/05 03:59:24;;;;;;;;;;;6.10;85.00;;;;;;6195391;23;19991;-82
2022/05/05 04:01:50;;;;;;;;;;;6.10;85.30;;;;;;6195203;23;20038;-81
2022/05/05 04:04:16;;;;;;;;;;;5.90;85.10;;;;;;6195661;23;19911;-82
2022/05/05 04:06:42;;;;;;;;;;;6.10;84.80;;;;;;6220109;23;19911;-81
2022/05/05 04:09:10;;;;;;;;;;;6.20;84.80;;;;;;6195325;23;19970;-83
2022/05/05 04:11:36;;;;;;;;;;;6.20;85.00;;;;;;6194820;23;19912;-82
2022/05/05 04:14:03;;;;;;;;;;;6.20;85.80;;;;;;6220007;23;19916;-83
2022/05/05 04:16:54;;;;;;;;;;;6.10;84.90;;;;;;6195162;23;19912;-82
2022/05/05 04:19:20;;;;;;;;;;;6.10;85.50;;;;;;6195495;23;19973;-84
2022/05/05 04:21:46;;;;;;;;;;;6.30;85.60;;;;;;6195269;23;19947;-83
2022/05/05 04:24:11;;;;;;;;;;;6.60;86.80;;;;;;6195265;23;19955;-83
2022/05/05 04:26:37;;;;;;;;;;;6.70;85.40;;;;;;6195235;23;19916;-86
2022/05/05 04:29:03;;;;;;;;;;;6.40;86.10;;;;;;6194660;23;19915;-83
2022/05/05 04:31:29;;;;;;;;;;;6.40;86.60;;;;;;6220091;23;19911;-82
2022/05/05 04:33:55;;;;;;;;;;;6.40;86.10;;;;;;6195069;23;19919;-83
2022/05/05 04:36:21;;;;;;;;;;;6.70;86.60;;;;;;6220077;23;19979;-82
2022/05/05 04:38:47;;;;;;;;;;;6.80;87.00;;;;;;6195117;23;20206;-83
2022/05/05 04:41:12;;;;;;;;;;;6.60;85.90;;;;;;6194959;23;20338;-80
2022/05/05 04:43:38;;;;;;;;;;;6.70;85.60;;;;;;6194774;23;19916;-84
2022/05/05 04:46:04;;;;;;;;;;;6.90;86.10;;;;;;6195210;23;20314;-81
2022/05/05 04:48:30;;;;;;;;;;;7.30;85.70;;;;;;6194982;23;20005;-82
2022/05/05 04:50:56;;;;;;;;;;;6.90;85.60;;;;;;6219978;23;19970;-82
2022/05/05 04:53:22;;;;;;;;;;;7.10;85.40;;;;;;6194672;23;19982;-81
2022/05/05 04:55:50;;;;;;;;;;;7.50;85.60;;;;;;6195063;23;20317;-81
2022/05/05 04:58:16;;;;;;;;;;;7.30;85.60;;;;;;6170039;23;19918;-82
2022/05/05 05:00:44;;;;;;;;;;;7.40;85.50;;;;;;6200948;23;19912;-82
2022/05/05 05:03:32;;;;;;;;;;;7.70;85.60;;;;;;6208857;23;19916;-85
2022/05/05 05:05:55;;;;;;;;;;;7.60;84.50;;;;;;6248429;22;19935;-81
2022/05/05 05:08:21;;;;;;;;;;;7.80;83.40;;;;;;6212211;23;19915;-83
2022/05/05 05:10:46;;;;;;;;;;;7.90;82.50;;;;;;6195024;23;19942;-82
2022/05/05 05:13:12;;;;;;;;;;;8.40;82.30;;;;;;6195103;23;19918;-81
2022/05/05 05:15:37;;;;;;;;;;;8.10;81.90;;;;;;6194196;23;19923;-81
2022/05/05 05:18:03;;;;;;;;;;;8.40;81.50;;;;;;6195746;23;19987;-80
2022/05/05 05:20:29;;;;;;;;;;;8.30;80.90;;;;;;6196987;22;19911;-81
2022/05/05 05:22:54;;;;;;;;;;;8.40;80.90;;;;;;6196877;23;20015;-82
2022/05/05 05:25:20;;;;;;;;;;;8.50;79.80;;;;;;6196729;23;19942;-81
2022/05/05 05:27:46;;;;;;;;;;;8.50;80.10;;;;;;6196759;23;20310;-82
2022/05/05 05:30:12;;;;;;;;;;;9.00;79.90;;;;;;6196753;22;19958;-81
2022/05/05 05:32:37;;;;;;;;;;;8.60;79.60;;;;;;6196289;23;19957;-81
2022/05/05 05:35:03;;;;;;;;;;;8.80;79.70;;;;;;6196261;23;19994;-83
2022/05/05 05:37:29;;;;;;;;;;;8.60;79.20;;;;;;6196701;23;19912;-82
2022/05/05 05:39:54;;;;;;;;;;;8.60;79.10;;;;;;6196674;23;19947;-84
2022/05/05 05:42:20;;;;;;;;;;;8.90;79.40;;;;;;6196625;23;19916;-82
2022/05/05 05:44:46;;;;;;;;;;;8.90;79.70;;;;;;6196700;23;19919;-82
2022/05/05 05:47:12;;;;;;;;;;;8.70;79.70;;;;;;6196295;23;19911;-84
2022/05/05 05:49:38;;;;;;;;;;;9.00;80.70;;;;;;6196248;23;19982;-80
2022/05/05 05:52:04;;;;;;;;;;;8.60;79.40;;;;;;6196233;23;19947;-81
2022/05/05 05:54:30;;;;;;;;;;;8.70;79.00;;;;;;6221915;23;20306;-84
2022/05/05 05:56:55;;;;;;;;;;;8.70;78.90;;;;;;6196661;23;19912;-82
2022/05/05 05:59:21;;;;;;;;;;;8.70;79.70;;;;;;6209413;22;19923;-81
2022/05/05 06:04:51;;;;;;;;;;;8.90;78.30;;;;;;6129919;23;19932;-79
2022/05/05 06:07:17;;;;;;;;;;;8.90;78.60;;;;;;6108580;23;19952;-75
2022/05/05 06:09:45;;;;;;;;;;;8.90;78.40;;;;;;6101138;23;19935;-80
2022/05/05 06:12:11;;;;;;;;;;;8.90;78.50;;;;;;6077339;23;20021;-78
2022/05/05 06:15:02;;;;;;;;;;;8.80;80.00;;;;;;6086983;23;19916;-78
2022/05/05 07:12:23;;;;;;;;;;;10.40;76.40;;;;;;6209898;23;19922;-79
2022/05/05 07:29:15;;;;;;;;;;;11.00;76.70;;;;;;6247628;23;20234;-82
2022/05/05 07:31:47;;;;;;;;;;;11.00;75.80;;;;;;6199177;23;20229;-76
2022/05/05 07:34:12;;;;;;;;;;;11.30;75.20;;;;;;6202302;23;19958;-77
2022/05/05 07:36:38;;;;;;;;;;;11.40;74.70;;;;;;6209803;23;19918;-74
2022/05/05 07:39:07;;;;;;;;;;;11.60;74.40;;;;;;6211851;23;19917;-74
2022/05/05 07:41:35;;;;;;;;;;;11.70;74.00;;;;;;6199029;23;19911;-80
2022/05/05 07:44:01;;;;;;;;;;;11.90;74.30;;;;;;6220708;23;20329;-77
2022/05/05 07:46:30;;;;;;;;;;;12.00;73.40;;;;;;6194921;23;19966;-78
2022/05/05 07:49:02;;;;;;;;;;;12.20;72.90;;;;;;6220102;23;19916;-78
2022/05/05 07:51:31;;;;;;;;;;;12.20;73.40;;;;;;6195467;23;19911;-78
2022/05/05 07:56:59;;;;;;;;;;;12.30;72.70;;;;;;6219974;23;19918;-80
2022/05/05 07:59:48;;;;;;;;;;;12.60;74.00;;;;;;6203942;23;19911;-80
2022/05/05 08:02:18;;;;;;;;;;;12.60;73.80;;;;;;6219911;23;19965;-80
2022/05/05 08:05:14;;;;;;;;;;;12.70;71.10;;;;;;6197944;23;19916;-79
2022/05/05 08:07:48;;;;;;;;;;;13.00;70.40;;;;;;6219942;23;19915;-80
2022/05/05 08:10:16;;;;;;;;;;;13.20;70.50;;;;;;6193146;23;20211;-82
2022/05/05 08:12:50;;;;;;;;;;;13.40;69.80;;;;;;6222743;23;20199;-79
2022/05/05 08:15:23;;;;;;;;;;;13.60;67.90;;;;;;6195271;23;19947;-82
2022/05/05 08:17:57;;;;;;;;;;;13.90;68.20;;;;;;6171040;23;19934;-81
2022/05/05 08:20:26;;;;;;;;;;;14.10;64.50;;;;;;6219381;23;19912;-81
2022/05/05 08:22:57;;;;;;;;;;;14.10;65.90;;;;;;6220337;23;19915;-79
2022/05/05 08:28:33;;;;;;;;;;;14.40;63.40;;;;;;6202541;23;19911;-80
2022/05/05 08:31:12;;;;;;;;;;;14.50;64.00;;;;;;6198544;23;19911;-79
2022/05/05 08:33:58;;;;;;;;;;;14.60;63.80;;;;;;6206580;23;19934;-74
2022/05/05 08:36:23;;;;;;;;;;;14.60;63.40;;;;;;6213794;23;19911;-74
2022/05/05 08:38:49;;;;;;;;;;;14.60;63.30;;;;;;6204921;23;20226;-80
2022/05/05 08:41:33;;;;;;;;;;;14.60;62.70;;;;;;6226132;23;19911;-75
2022/05/05 08:44:00;;;;;;;;;;;14.50;62.20;;;;;;6221227;23;19916;-76
2022/05/05 08:46:27;;;;;;;;;;;14.30;62.30;;;;;;6195020;23;19934;-77
2022/05/05 08:48:59;;;;;;;;;;;14.50;62.60;;;;;;6219999;23;19918;-79
2022/05/05 08:51:30;;;;;;;;;;;14.90;62.60;;;;;;6219757;23;19917;-77
2022/05/05 08:53:56;;;;;;;;;;;15.40;60.00;;;;;;6195017;23;19916;-80
2022/05/05 08:56:22;;;;;;;;;;;15.80;61.20;;;;;;6194912;23;19912;-78
2022/05/05 08:58:47;;;;;;;;;;;16.10;58.30;;;;;;6194717;23;20290;-77
2022/05/05 09:01:13;;;;;;;;;;;16.00;57.70;;;;;;6219580;23;19912;-76
2022/05/05 09:03:38;;;;;;;;;;;15.90;58.40;;;;;;6219691;23;19915;-78
2022/05/05 09:06:04;;;;;;;;;;;16.10;57.00;;;;;;6220215;23;19915;-76
2022/05/05 09:08:31;;;;;;;;;;;16.20;55.30;;;;;;6219689;23;19986;-77
2022/05/05 09:10:58;;;;;;;;;;;16.30;56.00;;;;;;6194743;22;20207;-74
2022/05/05 09:13:24;;;;;;;;;;;16.40;53.50;;;;;;6219577;23;20207;-75
2022/05/05 09:15:53;;;;;;;;;;;16.50;55.10;;;;;;6219541;23;19923;-76
2022/05/05 09:18:34;;;;;;;;;;;16.80;54.50;;;;;;6219020;23;19993;-74
2022/05/05 09:21:02;;;;;;;;;;;17.10;52.60;;;;;;6217724;23;20231;-72
2022/05/05 09:23:34;;;;;;;;;;;17.40;52.90;;;;;;6193791;23;19918;-77
2022/05/05 09:26:00;;;;;;;;;;;17.70;52.50;;;;;;6218136;23;19915;-77
2022/05/05 09:28:35;;;;;;;;;;;17.80;50.50;;;;;;6218288;23;19947;-77
2022/05/05 09:31:03;;;;;;;;;;;17.90;50.30;;;;;;6217990;23;19962;-77
2022/05/05 09:33:38;;;;;;;;;;;17.80;52.30;;;;;;6218065;23;20298;-79
2022/05/05 09:36:04;;;;;;;;;;;17.90;50.50;;;;;;6193181;23;19916;-75
2022/05/05 09:38:50;;;;;;;;;;;17.80;51.60;;;;;;6192908;23;19912;-74
2022/05/05 09:41:23;;;;;;;;;;;18.00;52.70;;;;;;6218204;23;20354;-83
2022/05/05 09:43:53;;;;;;;;;;;18.30;51.30;;;;;;6218152;23;19912;-79
2022/05/05 09:46:25;;;;;;;;;;;18.30;53.00;;;;;;6216245;23;19939;-76
2022/05/05 09:49:03;;;;;;;;;;;18.20;52.50;;;;;;6218268;23;19911;-77
2022/05/05 09:51:29;;;;;;;;;;;18.00;52.30;;;;;;6193071;23;19971;-78
2022/05/05 09:59:46;;;;;;;;;;;18.10;53.10;;;;;;6251500;23;19916;-75
2022/05/05 10:02:26;;;;;;;;;;;18.00;53.80;;;;;;6226198;23;19915;-75
2022/05/05 10:04:53;;;;;;;;;;;18.00;53.80;;;;;;6209908;23;19986;-73
2022/05/05 10:07:20;;;;;;;;;;;18.00;54.30;;;;;;6207069;23;20233;-77
2022/05/05 10:09:47;;;;;;;;;;;18.20;53.50;;;;;;6220093;23;19942;-77
2022/05/05 10:12:14;;;;;;;;;;;18.40;52.90;;;;;;6195422;23;19922;-79
2022/05/05 10:14:40;;;;;;;;;;;18.50;53.70;;;;;;6219998;23;19915;-78
2022/05/05 10:17:07;;;;;;;;;;;18.60;53.30;;;;;;6195040;23;19942;-79
2022/05/05 10:19:32;;;;;;;;;;;18.80;52.40;;;;;;6219902;23;19991;-75
2022/05/05 10:22:04;;;;;;;;;;;18.70;52.80;;;;;;6194902;23;19966;-80
2022/05/05 10:24:31;;;;;;;;;;;18.80;52.70;;;;;;6219130;23;19915;-77
2022/05/05 10:27:03;;;;;;;;;;;18.80;53.70;;;;;;6194289;23;19915;-79
2022/05/05 10:29:40;;;;;;;;;;;19.00;54.10;;;;;;6219796;23;19969;-72
2022/05/05 10:38:52;;;;;;;;;;;19.20;53.70;;;;;;6153647;23;19919;-70
2022/05/05 10:41:46;;;;;;;;;;;;;;;;;;;;;
2022/05/05 10:44:22;;;;;;;;;;;19.30;53.20;;;;;;6221053;23;19915;-79
2022/05/05 10:47:01;;;;;;;;;;;19.50;52.40;;;;;;6195107;23;19912;-79
2022/05/05 10:49:47;;;;;;;;;;;19.70;52.40;;;;;;6196038;23;19934;-76
2022/05/05 10:52:45;;;;;;;;;;;19.90;52.80;;;;;;6172593;23;19911;-77
2022/05/05 10:58:51;;;;;;;;;;;19.70;52.80;;;;;;6247397;23;19927;-81
2022/05/05 11:01:17;;;;;;;;;;;19.50;52.60;;;;;;6195439;23;19918;-74
2022/05/05 11:04:01;;;;;;;;;;;19.70;52.80;;;;;;6220530;23;19915;-74
2022/05/05 11:06:28;;;;;;;;;;;19.90;52.70;;;;;;6220015;23;19916;-75
2022/05/05 11:08:53;;;;;;;;;;;19.60;53.50;;;;;;6220688;23;20322;-74
2022/05/05 11:21:31;;;;;;;;;;;20.00;52.60;;;;;;6220456;23;20298;-74
2022/05/05 11:22:48;;;;;;;;;;;19.90;53.60;;;;;;6220373;23;19943;-75
2022/05/05 11:25:21;;;;;;;;;;;20.10;53.00;;;;;;6195929;23;20360;-76
2022/05/05 11:28:38;;;;;;;;;;;20.20;52.40;;;;;;6224839;23;19911;-75
2022/05/05 11:30:51;;;;;;;;;;;20.10;52.00;;;;;;6219482;22;19918;-76
2022/05/05 11:33:20;;;;;;;;;;;20.10;52.00;;;;;;6228711;23;19915;-75
2022/05/05 11:35:56;;;;;;;;;;;20.10;52.50;;;;;;6228720;23;19915;-77
2022/05/05 11:38:59;;;;;;;;;;;20.20;52.10;;;;;;6199214;23;20215;-76
2022/05/05 11:41:25;;;;;;;;;;;20.40;52.00;;;;;;6194350;23;20233;-74
2022/05/05 11:46:36;;;;;;;;;;;20.40;51.10;;;;;;6218773;23;19922;-72
2022/05/05 11:49:02;;;;;;;;;;;20.40;51.80;;;;;;6218720;23;19915;-73
2022/05/05 11:51:34;;;;;;;;;;;20.20;51.70;;;;;;6218773;23;20061;-73
2022/05/05 11:54:04;;;;;;;;;;;19.90;52.70;;;;;;6219200;23;19915;-72
2022/05/05 11:56:30;;;;;;;;;;;19.60;53.20;;;;;;6219389;23;19915;-74
2022/05/05 12:01:52;;;;;;;;;;;20.20;52.70;;;;;;6219070;23;19915;-73
2022/05/05 12:04:18;;;;;;;;;;;20.20;52.00;;;;;;6219002;23;19955;-74
2022/05/05 12:06:44;;;;;;;;;;;20.10;51.00;;;;;;6218662;23;19916;-73
2022/05/05 12:09:10;;;;;;;;;;;19.80;53.10;;;;;;6193296;23;19912;-74
2022/05/05 12:11:36;;;;;;;;;;;19.90;54.00;;;;;;6193932;23;19915;-76
2022/05/05 12:14:05;;;;;;;;;;;20.10;52.60;;;;;;6220243;23;20303;-76
2022/05/05 12:16:31;;;;;;;;;;;20.30;52.10;;;;;;6195199;23;19915;-76
2022/05/05 12:18:57;;;;;;;;;;;20.20;51.50;;;;;;6194743;23;19922;-75
2022/05/05 12:21:24;;;;;;;;;;;20.30;52.20;;;;;;6247045;22;20229;-74
2022/05/05 12:23:59;;;;;;;;;;;20.30;52.30;;;;;;6220061;23;19916;-76
2022/05/05 12:26:36;;;;;;;;;;;20.40;51.60;;;;;;6219623;23;20234;-75
2022/05/05 12:29:12;;;;;;;;;;;20.40;52.50;;;;;;6194518;23;20311;-74
2022/05/05 12:31:37;;;;;;;;;;;20.60;52.10;;;;;;6194741;23;19922;-76
2022/05/05 12:34:03;;;;;;;;;;;20.80;52.00;;;;;;6220147;23;20230;-76
2022/05/05 12:36:29;;;;;;;;;;;20.90;51.40;;;;;;6194998;23;19915;-76
2022/05/05 12:39:13;;;;;;;;;;;21.00;50.90;;;;;;6220063;23;19923;-77
2022/05/05 12:41:55;;;;;;;;;;;20.90;51.40;;;;;;6219907;23;19916;-77
2022/05/05 12:44:20;;;;;;;;;;;21.00;50.70;;;;;;6220185;23;19961;-75
2022/05/05 12:46:52;;;;;;;;;;;21.10;50.00;;;;;;6194690;23;19970;-76
2022/05/05 12:49:37;;;;;;;;;;;21.20;49.80;;;;;;6220057;23;19994;-76
2022/05/05 12:52:03;;;;;;;;;;;21.10;50.20;;;;;;6196881;23;19922;-74
2022/05/05 12:59:57;;;;;;;;;;;21.00;50.70;;;;;;6234043;23;19915;-74
2022/05/05 13:02:23;;;;;;;;;;;21.10;50.80;;;;;;6206055;23;20005;-73
2022/05/05 13:04:48;;;;;;;;;;;21.00;49.50;;;;;;6200796;23;19983;-73
2022/05/05 13:07:15;;;;;;;;;;;20.90;49.90;;;;;;6198708;23;19919;-76
2022/05/05 13:09:40;;;;;;;;;;;20.90;51.00;;;;;;6219798;23;19916;-75
2022/05/05 13:12:06;;;;;;;;;;;21.30;50.40;;;;;;6195434;23;19973;-78
2022/05/05 13:14:32;;;;;;;;;;;21.60;49.30;;;;;;6195008;23;20311;-75
2022/05/05 13:16:59;;;;;;;;;;;21.60;49.20;;;;;;6169850;23;20034;-76
2022/05/05 13:19:25;;;;;;;;;;;21.40;49.50;;;;;;6219452;23;19915;-75
2022/05/05 13:21:51;;;;;;;;;;;21.10;48.40;;;;;;6219532;23;19911;-77
2022/05/05 13:24:17;;;;;;;;;;;20.90;48.20;;;;;;6194782;23;19919;-77
2022/05/05 13:26:44;;;;;;;;;;;20.90;49.50;;;;;;6194817;23;19947;-76
2022/05/05 13:29:13;;;;;;;;;;;20.90;51.00;;;;;;6194775;23;19922;-74
2022/05/05 13:31:41;;;;;;;;;;;21.00;50.10;;;;;;6194551;23;19915;-75
2022/05/05 13:34:08;;;;;;;;;;;21.00;50.70;;;;;;6169441;23;19923;-75
2022/05/05 13:36:35;;;;;;;;;;;21.00;50.50;;;;;;6246543;23;19916;-76
2022/05/05 13:39:01;;;;;;;;;;;20.80;49.60;;;;;;6195708;23;19915;-75
2022/05/05 13:41:27;;;;;;;;;;;20.60;50.10;;;;;;6171405;23;20233;-77
2022/05/05 13:43:53;;;;;;;;;;;20.50;49.90;;;;;;6248101;23;19919;-77
2022/05/05 13:46:21;;;;;;;;;;;20.70;52.30;;;;;;6220301;23;19998;-76
2022/05/05 13:48:47;;;;;;;;;;;21.10;52.10;;;;;;6194473;23;19912;-76
2022/05/05 13:51:13;;;;;;;;;;;21.10;51.30;;;;;;6194747;22;20329;-72
2022/05/05 13:53:38;;;;;;;;;;;21.20;51.40;;;;;;6220039;23;19915;-72
2022/05/05 13:56:04;;;;;;;;;;;21.10;51.90;;;;;;6195152;23;19916;-73
2022/05/05 13:58:30;;;;;;;;;;;21.20;51.70;;;;;;6246348;23;19962;-74
2022/05/05 14:00:58;;;;;;;;;;;21.20;51.80;;;;;;6221113;23;19994;-76
2022/05/05 14:12:37;;;;;;;;;;;21.30;51.30;;;;;;6220968;23;19916;-76
2022/05/05 14:15:03;;;;;;;;;;;21.20;51.80;;;;;;6220947;23;19939;-76
2022/05/05 14:17:29;;;;;;;;;;;21.10;52.10;;;;;;6220970;23;19911;-76
2022/05/05 14:19:54;;;;;;;;;;;21.00;51.80;;;;;;6196337;23;19912;-77
2022/05/05 14:22:20;;;;;;;;;;;20.90;52.30;;;;;;6195874;23;19961;-76
2022/05/05 14:24:45;;;;;;;;;;;20.80;52.00;;;;;;6196115;23;19919;-76
2022/05/05 14:27:11;;;;;;;;;;;20.90;51.80;;;;;;6171318;23;19916;-77
2022/05/05 14:29:37;;;;;;;;;;;21.00;52.10;;;;;;6248004;23;19927;-77
2022/05/05 14:32:02;;;;;;;;;;;21.00;51.90;;;;;;6221174;23;20233;-77
2022/05/05 14:34:28;;;;;;;;;;;21.10;52.50;;;;;;6224855;23;20229;-76
2022/05/05 14:36:54;;;;;;;;;;;21.20;50.50;;;;;;6226586;23;19950;-78
2022/05/05 14:39:19;;;;;;;;;;;21.50;51.40;;;;;;6221315;23;19912;-78
2022/05/05 14:41:45;;;;;;;;;;;21.60;51.00;;;;;;6220734;23;19911;-77
2022/05/05 14:44:11;;;;;;;;;;;21.80;50.30;;;;;;6221155;23;19912;-77
2022/05/05 14:46:36;;;;;;;;;;;21.90;49.50;;;;;;6220998;23;20007;-78
2022/05/05 14:49:02;;;;;;;;;;;21.70;49.00;;;;;;6195402;23;19966;-77
2022/05/05 14:51:28;;;;;;;;;;;21.50;49.30;;;;;;6220934;22;20222;-77
2022/05/05 14:53:55;;;;;;;;;;;21.60;49.40;;;;;;6195747;23;19912;-78
2022/05/05 14:56:21;;;;;;;;;;;21.60;50.00;;;;;;6220675;23;19953;-78
2022/05/05 14:58:46;;;;;;;;;;;21.70;49.50;;;;;;6220768;23;20233;-77
2022/05/05 15:01:12;;;;;;;;;;;21.70;49.50;;;;;;6195713;22;20361;-78
2022/05/05 15:03:38;;;;;;;;;;;21.60;50.30;;;;;;6220774;23;20269;-76
2022/05/05 15:06:04;;;;;;;;;;;21.50;49.70;;;;;;6220642;23;20208;-77
2022/05/05 15:08:30;;;;;;;;;;;21.50;50.20;;;;;;6195723;23;19966;-76
2022/05/05 15:10:56;;;;;;;;;;;21.50;49.70;;;;;;6220230;23;19923;-76
2022/05/05 15:13:22;;;;;;;;;;;21.50;49.40;;;;;;6195522;23;20284;-76
2022/05/05 15:15:51;;;;;;;;;;;21.40;49.20;;;;;;6247765;23;20222;-76
2022/05/05 15:18:19;;;;;;;;;;;21.40;49.40;;;;;;6195299;23;19916;-76
2022/05/05 15:20:44;;;;;;;;;;;21.50;49.20;;;;;;6195373;23;19961;-76
2022/05/05 15:23:12;;;;;;;;;;;21.50;49.80;;;;;;6220184;23;20257;-76
2022/05/05 15:25:37;;;;;;;;;;;21.30;50.50;;;;;;6195721;23;19912;-77
2022/05/05 15:28:03;;;;;;;;;;;21.10;50.60;;;;;;6220230;23;19916;-76
2022/05/05 15:30:29;;;;;;;;;;;20.90;50.90;;;;;;6220759;23;19916;-76
2022/05/05 15:32:54;;;;;;;;;;;20.80;50.80;;;;;;6170793;23;19986;-77
2022/05/05 15:35:20;;;;;;;;;;;20.70;52.20;;;;;;6220605;23;20290;-76
2022/05/05 15:37:45;;;;;;;;;;;20.70;52.50;;;;;;6220571;23;19915;-78
2022/05/05 15:40:11;;;;;;;;;;;20.70;52.50;;;;;;6195194;23;19916;-76
2022/05/05 15:42:37;;;;;;;;;;;20.70;52.40;;;;;;6219968;23;19915;-76
2022/05/05 15:45:03;;;;;;;;;;;20.70;52.10;;;;;;6220526;23;20225;-77
2022/05/05 15:47:29;;;;;;;;;;;20.60;52.10;;;;;;6195172;23;19996;-76
2022/05/05 15:49:55;;;;;;;;;;;20.70;52.70;;;;;;6195010;23;19975;-77
2022/05/05 15:52:21;;;;;;;;;;;20.70;52.20;;;;;;6220008;23;19918;-77
2022/05/05 15:54:49;;;;;;;;;;;20.90;51.70;;;;;;6220716;23;19915;-77
2022/05/05 15:57:15;;;;;;;;;;;21.30;51.70;;;;;;6220114;23;19912;-78
2022/05/05 15:59:42;;;;;;;;;;;21.40;50.20;;;;;;6220501;23;19955;-77
2022/05/05 16:02:13;;;;;;;;;;;21.40;50.00;;;;;;6219834;23;19982;-78
2022/05/05 16:04:39;;;;;;;;;;;21.50;49.70;;;;;;6220197;23;20314;-77
2022/05/05 16:07:06;;;;;;;;;;;21.60;49.30;;;;;;6194966;23;19983;-77
2022/05/05 16:09:32;;;;;;;;;;;22.10;48.00;;;;;;6219773;23;19911;-78
2022/05/05 16:11:58;;;;;;;;;;;22.60;47.20;;;;;;6219660;23;19943;-77
2022/05/05 16:14:25;;;;;;;;;;;23.20;45.50;;;;;;6219785;23;19923;-76
2022/05/05 16:16:51;;;;;;;;;;;23.50;45.00;;;;;;6194754;23;19947;-77
2022/05/05 16:19:17;;;;;;;;;;;23.40;44.40;;;;;;6219697;23;20241;-76
2022/05/05 16:21:43;;;;;;;;;;;22.80;44.90;;;;;;6220026;23;19912;-76
2022/05/05 16:24:09;;;;;;;;;;;22.00;46.40;;;;;;6194879;23;19915;-77
2022/05/05 16:30:07;;;;;;;;;;;20.90;49.30;;;;;;6220210;23;19915;-77
2022/05/05 16:32:05;;;;;;;;;;;20.50;50.00;;;;;;6219858;23;19916;-76
2022/05/05 16:34:31;;;;;;;;;;;20.10;50.70;;;;;;6195189;23;20327;-76
2022/05/05 16:36:57;;;;;;;;;;;19.90;50.90;;;;;;6220319;23;19919;-77
2022/05/05 16:39:24;;;;;;;;;;;19.60;51.50;;;;;;6195181;23;20388;-76
2022/05/05 16:41:51;;;;;;;;;;;19.30;51.40;;;;;;6219871;23;19915;-77
2022/05/05 16:44:17;;;;;;;;;;;19.10;53.70;;;;;;6219663;23;19919;-77
2022/05/05 16:46:43;;;;;;;;;;;19.10;54.30;;;;;;6220162;23;19912;-77
2022/05/05 16:49:08;;;;;;;;;;;18.90;55.20;;;;;;6169730;23;19923;-76
2022/05/05 16:51:34;;;;;;;;;;;18.70;56.20;;;;;;6219578;22;19950;-76